Impacts TAF Board
For situational awareness. Not to be used for flight planning purposes.
IDs:

KPHX - Phoenix/Sky Harbor, AZ, US

Issued at 0258 UTC 12 Dec 2018
Updated at 0408 UTC 12 Dec 2018
Potential Impact None Slight Moderate High
Time0351Z 12/05Z 12/06Z 12/07Z 12/08Z 12/09Z 12/10Z 12/11Z 12/12Z 12/13Z 12/14Z 12/15Z 12/16Z 12/17Z>>
Type OBS PRVL PRVL PRVL PRVL PRVL PRVL PRVL PRVL PRVL PRVL PRVL PRVL PRVL
VIS 10 >6 >6 >6 >6 >6 >6 >6 >6 >6 >6 >6 >6 >6
CIG -- -- -- -- -- -- -- -- -- -- -- -- -- --
Cover SCT FEW FEW FEW FEW FEW FEW FEW FEW FEW FEW FEW FEW FEW
FltCat VFR VFR VFR VFR VFR VFR VFR VFR VFR VFR VFR VFR VFR VFR
WX -- -- -- -- -- -- -- -- -- -- -- -- -- --
WDir VRB 270 110 110 110 110 110 110 110 110 110 110 110 110
WSpd 0 4 5 5 5 5 5 5 5 5 5 5 5 5
WGst -- -- -- -- -- -- -- -- -- -- -- -- -- --
Raw TAF
KPHX 120258Z 1203/1306 27004KT P6SM FEW160
  FM120600 11005KT P6SM FEW160
  FM122000 25007KT P6SM FEW250


Raw METAR
KPHX 120351Z 00000KT 10SM FEW160 SCT180 14/05 A2999 RMK AO2 SLP149 T01390050
KPHX 120251Z 22004KT 10SM FEW170 SCT220 16/04 A2999 RMK AO2 SLP146 T01560044 53009
KPHX 120151Z 30005KT 10SM FEW150 SCT170 SCT220 18/03 A2997 RMK AO2 SLP141 T01830028

METAR Board
Radar Display
Forecast Discussion
For situational awareness. Not to be used for flight planning purposes.